createdAt,value
2022-10-17T00:02:35.953Z,21.88
2022-10-17T00:07:37.958Z,21.60
2022-10-17T00:12:39.413Z,21.33
2022-10-17T00:17:41.984Z,23.83
2022-10-17T00:22:43.688Z,24.50
2022-10-17T00:27:45.634Z,23.60
2022-10-17T00:32:47.400Z,24.02
2022-10-17T00:37:49.139Z,23.77
2022-10-17T00:42:53.070Z,24.55
2022-10-17T00:48:08.479Z,25.23
2022-10-17T00:53:11.043Z,24.88
2022-10-17T00:58:12.549Z,25.27
2022-10-17T01:03:14.483Z,23.35
2022-10-17T01:08:16.324Z,22.80
2022-10-17T01:13:46.800Z,24.42
2022-10-17T01:19:02.532Z,23.55
2022-10-17T01:24:41.203Z,24.45
2022-10-17T01:30:09.641Z,24.52
2022-10-17T01:35:28.960Z,22.67
2022-10-17T01:40:45.782Z,22.05
2022-10-17T01:45:57.212Z,22.00
2022-10-17T01:51:07.904Z,23.38
2022-10-17T01:56:13.215Z,25.17
2022-10-17T02:01:16.988Z,25.77
2022-10-17T02:06:18.654Z,26.77
2022-10-17T02:11:25.080Z,24.98
2022-10-17T02:16:41.388Z,25.08
2022-10-17T02:22:18.000Z,22.70
2022-10-17T02:27:46.795Z,22.20
2022-10-17T02:32:55.393Z,20.38
2022-10-17T02:37:58.303Z,22.40
2022-10-17T02:43:03.653Z,21.38
2022-10-17T02:48:15.426Z,21.25
2022-10-17T02:53:27.609Z,21.10
2022-10-17T02:58:33.235Z,20.73
2022-10-17T03:03:34.656Z,21.02
2022-10-17T03:08:36.068Z,21.10
2022-10-17T03:13:39.724Z,20.40
2022-10-17T03:18:43.486Z,20.40
2022-10-17T03:23:48.079Z,19.55
2022-10-17T03:28:52.028Z,20.40
2022-10-17T03:33:55.833Z,20.60
2022-10-17T03:38:57.221Z,20.77
2022-10-17T03:43:58.631Z,21.48
2022-10-17T03:49:00.249Z,20.58
2022-10-17T03:54:01.887Z,22.15
2022-10-17T03:59:03.368Z,20.75
2022-10-17T04:04:04.961Z,21.23
2022-10-17T04:09:07.095Z,20.50
2022-10-17T04:14:09.954Z,20.95
2022-10-17T04:19:13.733Z,21.45
2022-10-17T04:24:15.244Z,21.05
2022-10-17T04:29:17.241Z,20.65
2022-10-17T04:34:24.040Z,22.52
2022-10-17T04:39:25.814Z,21.05
2022-10-17T04:44:30.727Z,21.20
2022-10-17T04:49:32.240Z,22.33
2022-10-17T04:54:33.642Z,21.40
2022-10-17T04:59:35.052Z,21.55
2022-10-17T05:04:36.447Z,21.58
2022-10-17T05:09:37.919Z,21.55
2022-10-17T05:14:39.307Z,21.58
2022-10-17T05:19:40.707Z,22.08
2022-10-17T05:24:42.156Z,22.63
2022-10-17T05:29:43.548Z,21.38
2022-10-17T05:34:44.996Z,20.98
2022-10-17T05:39:50.617Z,21.40
2022-10-17T05:44:53.093Z,22.20
2022-10-17T05:49:54.509Z,20.50
2022-10-17T05:54:56.005Z,23.15
2022-10-17T05:59:57.492Z,22.05
2022-10-17T06:04:58.900Z,21.35
2022-10-17T06:10:00.339Z,22.38
2022-10-17T06:15:01.918Z,19.75
2022-10-17T06:20:04.012Z,21.80
2022-10-17T06:25:05.902Z,20.85
2022-10-17T06:30:07.939Z,22.50
2022-10-17T06:35:09.507Z,22.45
2022-10-17T06:40:12.337Z,21.63
2022-10-17T06:45:14.163Z,19.08
2022-10-17T06:50:15.645Z,22.23
2022-10-17T06:55:21.314Z,21.58
2022-10-17T07:00:26.691Z,21.15
2022-10-17T07:05:28.079Z,21.30
2022-10-17T07:10:29.653Z,22.48
2022-10-17T07:15:32.401Z,20.80
2022-10-17T07:20:34.140Z,20.70
2022-10-17T07:25:40.030Z,20.20
2022-10-17T07:30:42.488Z,18.98
2022-10-17T07:35:44.013Z,19.40
2022-10-17T07:40:45.488Z,19.23
2022-10-17T07:45:46.883Z,19.73
2022-10-17T07:50:48.805Z,18.00
2022-10-17T07:55:51.357Z,19.65
2022-10-17T08:00:52.955Z,16.17
2022-10-17T08:05:58.130Z,19.60
2022-10-17T08:11:05.439Z,18.42
2022-10-17T08:16:10.311Z,18.58
2022-10-17T08:21:13.417Z,17.08
2022-10-17T08:26:17.240Z,16.67
2022-10-17T08:31:20.127Z,16.70
2022-10-17T08:36:21.698Z,18.30
2022-10-17T08:41:44.920Z,15.50
2022-10-17T08:46:50.129Z,16.52
2022-10-17T08:52:02.844Z,13.20
2022-10-17T08:57:04.353Z,15.48
2022-10-17T09:02:43.282Z,15.70
2022-10-17T09:08:04.041Z,15.32
2022-10-17T09:13:23.860Z,15.57
2022-10-17T09:18:35.811Z,15.95
2022-10-17T09:23:59.518Z,16.65
2022-10-17T09:29:27.702Z,12.05
2022-10-17T09:34:33.008Z,14.20
2022-10-17T09:39:34.484Z,14.55
2022-10-17T09:45:04.700Z,13.77
2022-10-17T09:50:20.758Z,13.70
2022-10-17T09:55:50.730Z,12.55
2022-10-17T10:00:52.252Z,12.52
2022-10-17T10:06:13.902Z,12.27
2022-10-17T10:11:16.013Z,14.50
2022-10-17T10:16:31.405Z,12.65
2022-10-17T10:21:33.948Z,13.23
2022-10-17T10:26:45.931Z,12.02
2022-10-17T10:31:48.746Z,13.57
2022-10-17T10:37:02.106Z,11.77
2022-10-17T10:42:08.188Z,10.80
2022-10-17T10:47:18.583Z,10.77
2022-10-17T10:52:35.340Z,11.73
2022-10-17T10:57:37.742Z,11.27
2022-10-17T11:02:47.502Z,12.05
2022-10-17T11:08:24.460Z,11.20
2022-10-17T11:13:37.623Z,11.15
2022-10-17T11:18:45.586Z,10.95
2022-10-17T11:23:51.395Z,11.05
2022-10-17T11:28:54.527Z,11.55
2022-10-17T11:33:58.983Z,11.40
2022-10-17T11:39:06.079Z,10.50
2022-10-17T11:44:25.004Z,9.73
2022-10-17T11:49:38.257Z,10.63
2022-10-17T11:54:48.983Z,10.05
2022-10-17T11:59:56.218Z,10.35
2022-10-17T12:05:06.946Z,9.55
2022-10-17T12:10:37.396Z,10.27
2022-10-17T12:15:38.927Z,10.88
2022-10-17T12:20:40.443Z,10.15
2022-10-17T12:25:52.167Z,10.68
2022-10-17T12:30:58.406Z,9.00
2022-10-17T12:36:27.257Z,9.75
2022-10-17T12:41:40.806Z,9.55
2022-10-17T12:46:50.907Z,9.57
2022-10-17T12:52:16.944Z,9.45
2022-10-17T12:57:40.149Z,9.88
2022-10-17T13:02:41.987Z,9.95
2022-10-17T13:07:47.917Z,9.43
2022-10-17T13:12:51.198Z,11.05
2022-10-17T13:18:00.307Z,10.30
2022-10-17T13:23:02.005Z,10.32
2022-10-17T13:28:12.308Z,10.93
2022-10-17T13:33:28.473Z,9.93
2022-10-17T13:38:34.821Z,8.52
2022-10-17T13:43:38.906Z,10.40
2022-10-17T13:48:40.501Z,13.07
2022-10-17T13:53:44.374Z,10.73
2022-10-17T13:58:51.225Z,10.05
2022-10-17T14:04:07.254Z,9.02
2022-10-17T14:09:28.750Z,8.32
2022-10-17T14:14:37.511Z,8.25
2022-10-17T14:20:05.811Z,7.57
2022-10-17T14:25:37.139Z,6.75
2022-10-17T14:30:57.752Z,8.00
2022-10-17T14:36:01.877Z,8.10
2022-10-17T14:41:40.928Z,7.53
2022-10-17T14:46:31.123Z,7.50
2022-10-17T14:51:44.722Z,7.45
2022-10-17T14:56:55.801Z,8.82
2022-10-17T15:01:57.233Z,16.55
2022-10-17T15:06:58.687Z,21.73
2022-10-17T15:12:02.675Z,18.50
2022-10-17T15:17:12.517Z,17.35
2022-10-17T15:22:16.040Z,13.10
2022-10-17T15:27:22.946Z,10.80
2022-10-17T15:32:24.422Z,8.70
2022-10-17T15:37:25.964Z,8.20
2022-10-17T15:42:29.533Z,8.73
2022-10-17T15:47:35.327Z,9.60
2022-10-17T15:52:36.795Z,8.93
2022-10-17T15:57:42.769Z,8.05
2022-10-17T16:02:44.738Z,7.28
2022-10-17T16:07:46.811Z,7.70
2022-10-17T16:12:49.910Z,8.68
2022-10-17T16:17:52.957Z,7.90
2022-10-17T16:22:59.844Z,7.30
2022-10-17T16:28:01.647Z,7.57
2022-10-17T16:33:03.163Z,7.15
2022-10-17T16:38:06.308Z,7.80
2022-10-17T16:43:12.217Z,8.07
2022-10-17T16:48:14.443Z,7.90
2022-10-17T16:53:15.837Z,8.13
2022-10-17T16:58:17.300Z,7.80
2022-10-17T17:03:18.770Z,8.18
2022-10-17T17:08:20.228Z,8.13
2022-10-17T17:13:21.646Z,7.15
2022-10-17T17:18:23.104Z,7.28
2022-10-17T17:23:24.567Z,7.22
2022-10-17T17:28:26.743Z,7.25
2022-10-17T17:33:29.939Z,8.10
2022-10-17T17:38:33.655Z,8.57
2022-10-17T17:43:35.764Z,8.00
2022-10-17T17:48:41.040Z,6.82
2022-10-17T17:53:42.561Z,7.75
2022-10-17T17:58:46.465Z,7.55
2022-10-17T18:03:49.757Z,7.47
2022-10-17T18:08:54.235Z,7.38
2022-10-17T18:14:07.113Z,6.97
2022-10-17T18:19:11.031Z,7.57
2022-10-17T18:24:12.445Z,8.13
2022-10-17T18:29:13.844Z,8.30
2022-10-17T18:34:15.263Z,7.50
2022-10-17T18:39:16.733Z,7.70
2022-10-17T18:44:18.170Z,8.00
2022-10-17T18:49:21.687Z,7.72
2022-10-17T18:54:24.408Z,7.60
2022-10-17T18:59:25.862Z,7.75
2022-10-17T19:04:27.421Z,7.40
2022-10-17T19:09:28.883Z,7.47
2022-10-17T19:14:30.624Z,6.93
2022-10-17T19:19:32.477Z,6.80
2022-10-17T19:24:33.885Z,7.80
2022-10-17T19:29:35.314Z,8.40
2022-10-17T19:34:37.284Z,6.68
2022-10-17T19:39:38.866Z,7.97
2022-10-17T19:44:40.264Z,7.15
2022-10-17T19:49:42.903Z,7.40
2022-10-17T19:54:45.836Z,8.30
2022-10-17T19:59:48.015Z,7.57
2022-10-17T20:05:06.298Z,8.25
2022-10-17T20:10:12.307Z,8.52
2022-10-17T20:15:13.871Z,7.65
2022-10-17T20:20:15.434Z,7.53
2022-10-17T20:25:17.156Z,7.50
2022-10-17T20:30:18.755Z,7.30
2022-10-17T20:35:20.188Z,7.57
2022-10-17T20:40:36.893Z,8.15
2022-10-17T20:45:50.714Z,7.57
2022-10-17T20:50:53.199Z,8.30
2022-10-17T20:56:02.351Z,7.65
2022-10-17T21:01:08.588Z,7.88
2022-10-17T21:06:11.214Z,8.52
2022-10-17T21:11:19.097Z,8.02
2022-10-17T21:16:20.708Z,7.90
2022-10-17T21:21:26.652Z,7.50
2022-10-17T21:26:28.749Z,7.75
2022-10-17T21:31:30.227Z,7.63
2022-10-17T21:36:31.769Z,7.68
2022-10-17T21:41:33.333Z,7.90
2022-10-17T21:46:34.744Z,8.00
2022-10-17T21:51:36.182Z,7.78
2022-10-17T21:56:37.613Z,7.40
2022-10-17T22:01:41.412Z,7.55
2022-10-17T22:06:45.035Z,7.63
2022-10-17T22:11:48.969Z,7.15
2022-10-17T22:16:50.530Z,7.68
2022-10-17T22:21:52.514Z,6.90
2022-10-17T22:26:54.009Z,7.32
2022-10-17T22:31:55.412Z,7.38
2022-10-17T22:36:56.806Z,7.68
2022-10-17T22:41:58.198Z,7.25
2022-10-17T22:46:59.645Z,7.43
2022-10-17T22:52:01.068Z,7.78
2022-10-17T22:57:02.505Z,8.23
2022-10-17T23:02:04.438Z,7.78
2022-10-17T23:07:11.203Z,11.18
2022-10-17T23:12:12.596Z,9.02
2022-10-17T23:17:14.483Z,9.15
2022-10-17T23:22:15.924Z,8.25
2022-10-17T23:27:17.412Z,8.70
2022-10-17T23:32:20.542Z,9.65
2022-10-17T23:37:22.068Z,8.70
2022-10-17T23:42:23.653Z,9.32
2022-10-17T23:47:25.112Z,8.10
2022-10-17T23:52:26.521Z,8.07
2022-10-17T23:57:28.094Z,11.05
